Adamsville, Rhode Island
Current Conditions -  °F | °C
As of 1:53 AM on Thursday 18 Dec 2014 (Local Time) from KUUU Reporting Station
Broken Clouds Broken Clouds  
Wind Chill:   Ceiling: 6500
Heat Index:   Visibility: 10mi
Dew Point: -1°   Wind: 7mph
Humidity: 73%   Direction: 270°W
Pressure: 29.76"   Gusts: NA
Location:  41.55°N, 71.13°W
Report Text: KUUU 180653Z AUTO 27006KT 10SM FEW046 BKN065 03/M01 A2976 RMK AO2 SLP078 T00331011
Loading
Personal Weather Stations






























Interactive Weather Map New forecast layout! Learn more

10-Day Weather Forecast

Advertisements
Track Severe Weather on mobile